sensor_id;sensor_type;location;lat;lon;timestamp;temperature;humidity
4406;DHT22;2216;53.806;11.598;2023-01-26T00:01:25;0.00;81.50
4406;DHT22;2216;53.806;11.598;2023-01-26T00:03:55;0.00;81.50
4406;DHT22;2216;53.806;11.598;2023-01-26T00:06:22;0.00;81.50
4406;DHT22;2216;53.806;11.598;2023-01-26T00:08:51;0.00;81.60
4406;DHT22;2216;53.806;11.598;2023-01-26T00:11:23;0.00;81.60
4406;DHT22;2216;53.806;11.598;2023-01-26T00:13:54;0.00;81.60
4406;DHT22;2216;53.806;11.598;2023-01-26T00:16:21;0.00;81.60
4406;DHT22;2216;53.806;11.598;2023-01-26T00:18:46;0.00;81.60
4406;DHT22;2216;53.806;11.598;2023-01-26T00:21:15;0.00;81.70
4406;DHT22;2216;53.806;11.598;2023-01-26T00:23:42;0.00;81.70
4406;DHT22;2216;53.806;11.598;2023-01-26T00:26:10;0.00;81.70
4406;DHT22;2216;53.806;11.598;2023-01-26T00:28:37;0.00;82.40
4406;DHT22;2216;53.806;11.598;2023-01-26T00:31:04;-0.10;81.60
4406;DHT22;2216;53.806;11.598;2023-01-26T00:33:32;0.00;81.70
4406;DHT22;2216;53.806;11.598;2023-01-26T00:35:57;0.00;81.70
4406;DHT22;2216;53.806;11.598;2023-01-26T00:38:23;0.00;81.70
4406;DHT22;2216;53.806;11.598;2023-01-26T00:40:49;0.00;81.70
4406;DHT22;2216;53.806;11.598;2023-01-26T00:43:15;0.00;81.70
4406;DHT22;2216;53.806;11.598;2023-01-26T00:45:41;0.00;81.60
4406;DHT22;2216;53.806;11.598;2023-01-26T00:48:06;0.00;81.60
4406;DHT22;2216;53.806;11.598;2023-01-26T00:50:32;0.00;81.60
4406;DHT22;2216;53.806;11.598;2023-01-26T00:52:58;0.00;81.70
4406;DHT22;2216;53.806;11.598;2023-01-26T00:55:24;0.00;81.60
4406;DHT22;2216;53.806;11.598;2023-01-26T00:57:57;0.00;81.60
4406;DHT22;2216;53.806;11.598;2023-01-26T01:00:27;-0.10;81.60
4406;DHT22;2216;53.806;11.598;2023-01-26T01:02:53;-0.10;81.60
4406;DHT22;2216;53.806;11.598;2023-01-26T01:05:21;0.00;81.70
4406;DHT22;2216;53.806;11.598;2023-01-26T01:07:47;-0.10;81.60
4406;DHT22;2216;53.806;11.598;2023-01-26T01:10:13;-0.10;81.60
4406;DHT22;2216;53.806;11.598;2023-01-26T01:12:38;0.10;81.70
4406;DHT22;2216;53.806;11.598;2023-01-26T01:15:04;0.00;81.70
4406;DHT22;2216;53.806;11.598;2023-01-26T01:17:31;0.00;81.80
4406;DHT22;2216;53.806;11.598;2023-01-26T01:19:56;0.00;81.80
4406;DHT22;2216;53.806;11.598;2023-01-26T01:22:22;0.00;81.80
4406;DHT22;2216;53.806;11.598;2023-01-26T01:24:48;0.00;81.80
4406;DHT22;2216;53.806;11.598;2023-01-26T01:27:13;0.00;81.80
4406;DHT22;2216;53.806;11.598;2023-01-26T01:29:39;0.00;81.80
4406;DHT22;2216;53.806;11.598;2023-01-26T01:32:05;0.00;81.80
4406;DHT22;2216;53.806;11.598;2023-01-26T01:34:30;0.10;81.80
4406;DHT22;2216;53.806;11.598;2023-01-26T01:36:56;0.00;81.70
4406;DHT22;2216;53.806;11.598;2023-01-26T01:39:22;0.10;81.80
4406;DHT22;2216;53.806;11.598;2023-01-26T01:41:47;0.10;81.80
4406;DHT22;2216;53.806;11.598;2023-01-26T01:44:17;0.10;82.00
4406;DHT22;2216;53.806;11.598;2023-01-26T01:47:00;0.10;81.80
4406;DHT22;2216;53.806;11.598;2023-01-26T01:49:33;0.10;81.80
4406;DHT22;2216;53.806;11.598;2023-01-26T01:52:23;0.10;81.70
4406;DHT22;2216;53.806;11.598;2023-01-26T01:57:37;0.00;81.70
4406;DHT22;2216;53.806;11.598;2023-01-26T02:00:17;0.10;81.80
4406;DHT22;2216;53.806;11.598;2023-01-26T02:02:53;0.00;81.70
4406;DHT22;2216;53.806;11.598;2023-01-26T02:08:52;0.00;81.70
4406;DHT22;2216;53.806;11.598;2023-01-26T02:11:30;0.00;81.60
4406;DHT22;2216;53.806;11.598;2023-01-26T02:14:07;0.00;81.70
4406;DHT22;2216;53.806;11.598;2023-01-26T02:16:34;0.00;81.70
4406;DHT22;2216;53.806;11.598;2023-01-26T02:19:00;0.00;81.70
4406;DHT22;2216;53.806;11.598;2023-01-26T02:21:26;0.00;81.70
4406;DHT22;2216;53.806;11.598;2023-01-26T02:26:36;0.00;81.70
4406;DHT22;2216;53.806;11.598;2023-01-26T02:29:04;0.00;81.70
4406;DHT22;2216;53.806;11.598;2023-01-26T02:31:32;0.00;81.70
4406;DHT22;2216;53.806;11.598;2023-01-26T02:33:57;0.00;81.70
4406;DHT22;2216;53.806;11.598;2023-01-26T02:36:25;0.10;81.80
4406;DHT22;2216;53.806;11.598;2023-01-26T02:41:59;0.10;81.80
4406;DHT22;2216;53.806;11.598;2023-01-26T02:44:43;0.10;81.80
4406;DHT22;2216;53.806;11.598;2023-01-26T02:47:11;0.10;81.80
4406;DHT22;2216;53.806;11.598;2023-01-26T02:49:37;0.10;81.80
4406;DHT22;2216;53.806;11.598;2023-01-26T02:52:13;0.10;81.80
4406;DHT22;2216;53.806;11.598;2023-01-26T02:54:39;0.00;81.70
4406;DHT22;2216;53.806;11.598;2023-01-26T02:57:24;0.10;81.80
4406;DHT22;2216;53.806;11.598;2023-01-26T02:59:50;0.10;81.80
4406;DHT22;2216;53.806;11.598;2023-01-26T03:02:16;0.10;81.80
4406;DHT22;2216;53.806;11.598;2023-01-26T03:04:42;0.10;81.80
4406;DHT22;2216;53.806;11.598;2023-01-26T03:07:08;0.10;81.80
4406;DHT22;2216;53.806;11.598;2023-01-26T03:09:35;0.10;81.90
4406;DHT22;2216;53.806;11.598;2023-01-26T03:12:00;0.10;81.80
4406;DHT22;2216;53.806;11.598;2023-01-26T03:14:26;0.10;81.80
4406;DHT22;2216;53.806;11.598;2023-01-26T03:16:52;0.20;81.90
4406;DHT22;2216;53.806;11.598;2023-01-26T03:19:17;0.10;81.90
4406;DHT22;2216;53.806;11.598;2023-01-26T03:22:01;0.10;81.80
4406;DHT22;2216;53.806;11.598;2023-01-26T03:24:46;0.10;81.80
4406;DHT22;2216;53.806;11.598;2023-01-26T03:27:36;0.20;81.90
4406;DHT22;2216;53.806;11.598;2023-01-26T03:30:08;0.20;81.90
4406;DHT22;2216;53.806;11.598;2023-01-26T03:32:34;0.20;81.90
4406;DHT22;2216;53.806;11.598;2023-01-26T03:35:00;0.20;81.90
4406;DHT22;2216;53.806;11.598;2023-01-26T03:37:25;0.20;81.90
4406;DHT22;2216;53.806;11.598;2023-01-26T03:39:51;0.20;81.90
4406;DHT22;2216;53.806;11.598;2023-01-26T03:42:36;0.20;81.80
4406;DHT22;2216;53.806;11.598;2023-01-26T03:45:20;0.20;81.90
4406;DHT22;2216;53.806;11.598;2023-01-26T03:48:07;0.20;81.80
4406;DHT22;2216;53.806;11.598;2023-01-26T03:50:53;0.20;81.90
4406;DHT22;2216;53.806;11.598;2023-01-26T03:53:37;0.20;81.90
4406;DHT22;2216;53.806;11.598;2023-01-26T03:56:22;0.20;81.90
4406;DHT22;2216;53.806;11.598;2023-01-26T03:58:54;0.20;81.90
4406;DHT22;2216;53.806;11.598;2023-01-26T04:01:23;0.20;81.90
4406;DHT22;2216;53.806;11.598;2023-01-26T04:03:53;0.40;81.90
4406;DHT22;2216;53.806;11.598;2023-01-26T04:06:40;0.20;81.90
4406;DHT22;2216;53.806;11.598;2023-01-26T04:09:26;0.20;81.80
4406;DHT22;2216;53.806;11.598;2023-01-26T04:11:52;0.40;82.00
4406;DHT22;2216;53.806;11.598;2023-01-26T04:14:18;0.30;81.90
4406;DHT22;2216;53.806;11.598;2023-01-26T04:17:03;0.30;81.90
4406;DHT22;2216;53.806;11.598;2023-01-26T04:19:48;0.30;81.90
4406;DHT22;2216;53.806;11.598;2023-01-26T04:22:37;0.30;81.90
4406;DHT22;2216;53.806;11.598;2023-01-26T04:25:14;0.30;81.90
4406;DHT22;2216;53.806;11.598;2023-01-26T04:27:42;0.30;81.90
4406;DHT22;2216;53.806;11.598;2023-01-26T04:30:11;0.30;82.50
4406;DHT22;2216;53.806;11.598;2023-01-26T04:32:38;0.30;81.80
4406;DHT22;2216;53.806;11.598;2023-01-26T04:35:05;0.30;81.80
4406;DHT22;2216;53.806;11.598;2023-01-26T04:37:32;0.30;81.90
4406;DHT22;2216;53.806;11.598;2023-01-26T04:39:58;0.30;81.80
4406;DHT22;2216;53.806;11.598;2023-01-26T04:42:24;0.30;81.80
4406;DHT22;2216;53.806;11.598;2023-01-26T04:44:50;0.40;81.90
4406;DHT22;2216;53.806;11.598;2023-01-26T04:47:17;0.30;81.80
4406;DHT22;2216;53.806;11.598;2023-01-26T04:49:42;0.30;81.90
4406;DHT22;2216;53.806;11.598;2023-01-26T04:52:08;0.30;81.80
4406;DHT22;2216;53.806;11.598;2023-01-26T04:54:34;0.30;81.80
4406;DHT22;2216;53.806;11.598;2023-01-26T04:57:00;0.30;81.80
4406;DHT22;2216;53.806;11.598;2023-01-26T04:59:26;0.30;81.80
4406;DHT22;2216;53.806;11.598;2023-01-26T05:01:52;0.40;81.90
4406;DHT22;2216;53.806;11.598;2023-01-26T05:04:18;0.30;81.80
4406;DHT22;2216;53.806;11.598;2023-01-26T05:06:44;0.40;81.90
4406;DHT22;2216;53.806;11.598;2023-01-26T05:09:10;0.40;81.90
4406;DHT22;2216;53.806;11.598;2023-01-26T05:11:36;0.40;81.90
4406;DHT22;2216;53.806;11.598;2023-01-26T05:14:01;0.30;81.80
4406;DHT22;2216;53.806;11.598;2023-01-26T05:16:27;0.40;81.90
4406;DHT22;2216;53.806;11.598;2023-01-26T05:18:53;0.40;81.90
4406;DHT22;2216;53.806;11.598;2023-01-26T05:21:19;0.40;81.90
4406;DHT22;2216;53.806;11.598;2023-01-26T05:23:48;0.40;81.80
4406;DHT22;2216;53.806;11.598;2023-01-26T05:26:14;0.40;81.80
4406;DHT22;2216;53.806;11.598;2023-01-26T05:28:40;0.40;81.80
4406;DHT22;2216;53.806;11.598;2023-01-26T05:31:06;0.40;81.90
4406;DHT22;2216;53.806;11.598;2023-01-26T05:33:32;0.40;81.90
4406;DHT22;2216;53.806;11.598;2023-01-26T05:36:01;0.40;81.90
4406;DHT22;2216;53.806;11.598;2023-01-26T05:38:28;0.40;82.60
4406;DHT22;2216;53.806;11.598;2023-01-26T05:40:54;0.40;81.90
4406;DHT22;2216;53.806;11.598;2023-01-26T05:43:20;0.50;81.90
4406;DHT22;2216;53.806;11.598;2023-01-26T05:45:45;0.40;81.90
4406;DHT22;2216;53.806;11.598;2023-01-26T05:48:11;0.50;82.00
4406;DHT22;2216;53.806;11.598;2023-01-26T05:50:37;0.50;82.00
4406;DHT22;2216;53.806;11.598;2023-01-26T05:53:02;0.40;81.90
4406;DHT22;2216;53.806;11.598;2023-01-26T05:55:28;0.50;82.00
4406;DHT22;2216;53.806;11.598;2023-01-26T05:57:54;0.50;82.00
4406;DHT22;2216;53.806;11.598;2023-01-26T06:00:20;0.50;81.90
4406;DHT22;2216;53.806;11.598;2023-01-26T06:02:46;0.50;81.90
4406;DHT22;2216;53.806;11.598;2023-01-26T06:05:11;0.50;81.80
4406;DHT22;2216;53.806;11.598;2023-01-26T06:07:37;0.50;81.90
4406;DHT22;2216;53.806;11.598;2023-01-26T06:10:04;0.50;81.90
4406;DHT22;2216;53.806;11.598;2023-01-26T06:12:29;0.60;81.90
4406;DHT22;2216;53.806;11.598;2023-01-26T06:15:01;0.60;81.90
4406;DHT22;2216;53.806;11.598;2023-01-26T06:17:27;0.50;81.80
4406;DHT22;2216;53.806;11.598;2023-01-26T06:19:53;0.60;81.90
4406;DHT22;2216;53.806;11.598;2023-01-26T06:22:18;0.60;81.90
4406;DHT22;2216;53.806;11.598;2023-01-26T06:24:45;0.60;81.90
4406;DHT22;2216;53.806;11.598;2023-01-26T06:27:12;0.60;81.90
4406;DHT22;2216;53.806;11.598;2023-01-26T06:29:39;0.60;81.90
4406;DHT22;2216;53.806;11.598;2023-01-26T06:32:06;0.60;81.90
4406;DHT22;2216;53.806;11.598;2023-01-26T06:34:32;0.60;81.90
4406;DHT22;2216;53.806;11.598;2023-01-26T06:36:58;0.60;82.00
4406;DHT22;2216;53.806;11.598;2023-01-26T06:39:24;0.60;81.90
4406;DHT22;2216;53.806;11.598;2023-01-26T06:41:49;0.60;81.90
4406;DHT22;2216;53.806;11.598;2023-01-26T06:44:15;0.60;81.90
4406;DHT22;2216;53.806;11.598;2023-01-26T06:46:41;0.60;81.90
4406;DHT22;2216;53.806;11.598;2023-01-26T06:49:07;0.60;81.90
4406;DHT22;2216;53.806;11.598;2023-01-26T06:51:41;0.60;81.90
4406;DHT22;2216;53.806;11.598;2023-01-26T06:54:17;0.60;81.90
4406;DHT22;2216;53.806;11.598;2023-01-26T06:56:43;0.60;81.90
4406;DHT22;2216;53.806;11.598;2023-01-26T06:59:09;0.70;82.00
4406;DHT22;2216;53.806;11.598;2023-01-26T07:01:38;0.60;81.80
4406;DHT22;2216;53.806;11.598;2023-01-26T07:04:06;0.70;81.90
4406;DHT22;2216;53.806;11.598;2023-01-26T07:06:31;0.70;81.90
4406;DHT22;2216;53.806;11.598;2023-01-26T07:08:57;0.60;81.80
4406;DHT22;2216;53.806;11.598;2023-01-26T07:11:23;0.70;81.90
4406;DHT22;2216;53.806;11.598;2023-01-26T07:13:50;0.70;81.90
4406;DHT22;2216;53.806;11.598;2023-01-26T07:16:16;0.60;81.90
4406;DHT22;2216;53.806;11.598;2023-01-26T07:18:42;0.70;81.90
4406;DHT22;2216;53.806;11.598;2023-01-26T07:21:14;0.70;81.90
4406;DHT22;2216;53.806;11.598;2023-01-26T07:23:42;0.70;82.00
4406;DHT22;2216;53.806;11.598;2023-01-26T07:26:09;0.70;82.00
4406;DHT22;2216;53.806;11.598;2023-01-26T07:28:34;0.70;82.00
4406;DHT22;2216;53.806;11.598;2023-01-26T07:31:01;0.70;82.00
4406;DHT22;2216;53.806;11.598;2023-01-26T07:33:28;0.70;82.00
4406;DHT22;2216;53.806;11.598;2023-01-26T07:35:55;0.80;82.10
4406;DHT22;2216;53.806;11.598;2023-01-26T07:38:22;0.70;82.10
4406;DHT22;2216;53.806;11.598;2023-01-26T07:40:48;0.80;82.10
4406;DHT22;2216;53.806;11.598;2023-01-26T07:43:14;0.80;82.10
4406;DHT22;2216;53.806;11.598;2023-01-26T07:45:48;0.80;82.10
4406;DHT22;2216;53.806;11.598;2023-01-26T07:48:16;0.80;82.10
4406;DHT22;2216;53.806;11.598;2023-01-26T07:50:43;0.80;82.00
4406;DHT22;2216;53.806;11.598;2023-01-26T07:53:10;0.80;82.00
4406;DHT22;2216;53.806;11.598;2023-01-26T07:55:39;0.80;82.00
4406;DHT22;2216;53.806;11.598;2023-01-26T07:58:09;0.80;82.10
4406;DHT22;2216;53.806;11.598;2023-01-26T08:00:35;0.90;82.80
4406;DHT22;2216;53.806;11.598;2023-01-26T08:03:00;0.80;82.10
4406;DHT22;2216;53.806;11.598;2023-01-26T08:05:26;0.90;82.10
4406;DHT22;2216;53.806;11.598;2023-01-26T08:07:52;0.90;82.20
4406;DHT22;2216;53.806;11.598;2023-01-26T08:10:17;0.90;82.20
4406;DHT22;2216;53.806;11.598;2023-01-26T08:12:43;0.90;82.10
4406;DHT22;2216;53.806;11.598;2023-01-26T08:15:09;0.90;82.10
4406;DHT22;2216;53.806;11.598;2023-01-26T08:17:35;0.90;82.10
4406;DHT22;2216;53.806;11.598;2023-01-26T08:20:03;1.00;82.20
4406;DHT22;2216;53.806;11.598;2023-01-26T08:22:29;1.00;82.20
4406;DHT22;2216;53.806;11.598;2023-01-26T08:24:54;1.00;82.20
4406;DHT22;2216;53.806;11.598;2023-01-26T08:27:20;1.00;82.20
4406;DHT22;2216;53.806;11.598;2023-01-26T08:29:47;1.10;82.30
4406;DHT22;2216;53.806;11.598;2023-01-26T08:32:13;1.10;82.20
4406;DHT22;2216;53.806;11.598;2023-01-26T08:34:38;1.10;82.30
4406;DHT22;2216;53.806;11.598;2023-01-26T08:37:04;1.10;82.30
4406;DHT22;2216;53.806;11.598;2023-01-26T08:39:30;1.10;82.30
4406;DHT22;2216;53.806;11.598;2023-01-26T08:41:55;1.10;82.20
4406;DHT22;2216;53.806;11.598;2023-01-26T08:44:21;1.40;82.50
4406;DHT22;2216;53.806;11.598;2023-01-26T08:46:47;1.30;82.40
4406;DHT22;2216;53.806;11.598;2023-01-26T08:49:12;1.20;82.30
4406;DHT22;2216;53.806;11.598;2023-01-26T08:51:38;1.20;82.30
4406;DHT22;2216;53.806;11.598;2023-01-26T08:54:05;1.20;82.20
4406;DHT22;2216;53.806;11.598;2023-01-26T08:56:33;1.20;82.20
4406;DHT22;2216;53.806;11.598;2023-01-26T08:58:59;1.30;82.30
4406;DHT22;2216;53.806;11.598;2023-01-26T09:01:24;1.30;82.20
4406;DHT22;2216;53.806;11.598;2023-01-26T09:03:50;1.30;82.20
4406;DHT22;2216;53.806;11.598;2023-01-26T09:06:17;1.30;82.20
4406;DHT22;2216;53.806;11.598;2023-01-26T09:08:43;1.30;82.20
4406;DHT22;2216;53.806;11.598;2023-01-26T09:11:10;1.30;82.20
4406;DHT22;2216;53.806;11.598;2023-01-26T09:13:36;1.30;82.20
4406;DHT22;2216;53.806;11.598;2023-01-26T09:16:11;1.30;82.20
4406;DHT22;2216;53.806;11.598;2023-01-26T09:18:39;1.30;82.10
4406;DHT22;2216;53.806;11.598;2023-01-26T09:21:07;1.40;82.20
4406;DHT22;2216;53.806;11.598;2023-01-26T09:23:34;1.30;82.20
4406;DHT22;2216;53.806;11.598;2023-01-26T09:26:00;1.30;82.20
4406;DHT22;2216;53.806;11.598;2023-01-26T09:28:27;1.40;82.30
4406;DHT22;2216;53.806;11.598;2023-01-26T09:30:52;1.30;82.30
4406;DHT22;2216;53.806;11.598;2023-01-26T09:33:18;1.40;82.30
4406;DHT22;2216;53.806;11.598;2023-01-26T09:35:47;1.40;82.30
4406;DHT22;2216;53.806;11.598;2023-01-26T09:38:13;1.40;82.40
4406;DHT22;2216;53.806;11.598;2023-01-26T09:41:06;1.40;82.30
4406;DHT22;2216;53.806;11.598;2023-01-26T09:43:49;1.50;82.40
4406;DHT22;2216;53.806;11.598;2023-01-26T09:49:39;1.50;82.40
4406;DHT22;2216;53.806;11.598;2023-01-26T09:52:32;1.60;82.40
4406;DHT22;2216;53.806;11.598;2023-01-26T09:55:07;1.60;82.40
4406;DHT22;2216;53.806;11.598;2023-01-26T09:57:47;1.60;82.30
4406;DHT22;2216;53.806;11.598;2023-01-26T10:00:38;1.60;82.30
4406;DHT22;2216;53.806;11.598;2023-01-26T10:06:29;1.60;82.30
4406;DHT22;2216;53.806;11.598;2023-01-26T10:09:05;1.60;82.40
4406;DHT22;2216;53.806;11.598;2023-01-26T10:11:45;1.60;82.30
4406;DHT22;2216;53.806;11.598;2023-01-26T10:14:38;1.70;82.40
4406;DHT22;2216;53.806;11.598;2023-01-26T10:17:19;1.70;82.40
4406;DHT22;2216;53.806;11.598;2023-01-26T10:19:56;1.70;82.40
4406;DHT22;2216;53.806;11.598;2023-01-26T10:22:43;1.70;82.40
4406;DHT22;2216;53.806;11.598;2023-01-26T10:25:14;1.70;82.40
4406;DHT22;2216;53.806;11.598;2023-01-26T10:27:42;1.70;82.40
4406;DHT22;2216;53.806;11.598;2023-01-26T10:30:17;1.80;82.50
4406;DHT22;2216;53.806;11.598;2023-01-26T10:32:45;1.80;82.50
4406;DHT22;2216;53.806;11.598;2023-01-26T10:35:18;1.80;82.50
4406;DHT22;2216;53.806;11.598;2023-01-26T10:37:46;1.90;82.60
4406;DHT22;2216;53.806;11.598;2023-01-26T10:40:12;1.90;82.50
4406;DHT22;2216;53.806;11.598;2023-01-26T10:42:39;1.90;82.60
4406;DHT22;2216;53.806;11.598;2023-01-26T10:45:23;1.90;82.50
4406;DHT22;2216;53.806;11.598;2023-01-26T10:50:44;1.90;82.50
4406;DHT22;2216;53.806;11.598;2023-01-26T10:53:17;1.90;82.50
4406;DHT22;2216;53.806;11.598;2023-01-26T11:01:16;2.00;82.50
4406;DHT22;2216;53.806;11.598;2023-01-26T11:04:05;2.00;82.60
4406;DHT22;2216;53.806;11.598;2023-01-26T11:06:32;2.00;82.60
4406;DHT22;2216;53.806;11.598;2023-01-26T11:09:17;2.10;82.70
4406;DHT22;2216;53.806;11.598;2023-01-26T11:12:00;2.10;82.60
4406;DHT22;2216;53.806;11.598;2023-01-26T11:14:28;2.10;82.60
4406;DHT22;2216;53.806;11.598;2023-01-26T11:17:07;2.10;82.60
4406;DHT22;2216;53.806;11.598;2023-01-26T11:22:56;2.20;82.70
4406;DHT22;2216;53.806;11.598;2023-01-26T11:25:34;2.20;82.60
4406;DHT22;2216;53.806;11.598;2023-01-26T11:28:31;2.30;82.70
4406;DHT22;2216;53.806;11.598;2023-01-26T11:31:45;2.30;82.70
4406;DHT22;2216;53.806;11.598;2023-01-26T11:35:16;2.30;82.70
4406;DHT22;2216;53.806;11.598;2023-01-26T11:41:15;2.40;82.70
4406;DHT22;2216;53.806;11.598;2023-01-26T11:44:19;2.40;82.80
4406;DHT22;2216;53.806;11.598;2023-01-26T11:49:52;2.50;82.90
4406;DHT22;2216;53.806;11.598;2023-01-26T11:53:27;2.60;83.10
4406;DHT22;2216;53.806;11.598;2023-01-26T11:58:43;2.60;82.90
4406;DHT22;2216;53.806;11.598;2023-01-26T12:01:21;2.70;83.00
4406;DHT22;2216;53.806;11.598;2023-01-26T12:03:53;2.70;83.00
4406;DHT22;2216;53.806;11.598;2023-01-26T12:06:25;2.70;82.90
4406;DHT22;2216;53.806;11.598;2023-01-26T12:09:11;2.70;82.90
4406;DHT22;2216;53.806;11.598;2023-01-26T12:11:56;2.70;82.80
4406;DHT22;2216;53.806;11.598;2023-01-26T12:17:24;2.80;82.70
4406;DHT22;2216;53.806;11.598;2023-01-26T12:20:19;2.80;82.60
4406;DHT22;2216;53.806;11.598;2023-01-26T12:22:53;2.80;82.60
4406;DHT22;2216;53.806;11.598;2023-01-26T12:25:34;2.80;82.50
4406;DHT22;2216;53.806;11.598;2023-01-26T12:28:30;2.80;82.60
4406;DHT22;2216;53.806;11.598;2023-01-26T12:33:52;2.80;82.60
4406;DHT22;2216;53.806;11.598;2023-01-26T12:39:07;2.90;82.70
4406;DHT22;2216;53.806;11.598;2023-01-26T12:41:58;2.90;82.70
4406;DHT22;2216;53.806;11.598;2023-01-26T12:44:32;2.90;82.70
4406;DHT22;2216;53.806;11.598;2023-01-26T12:47:21;2.90;82.70
4406;DHT22;2216;53.806;11.598;2023-01-26T12:55:35;2.90;82.60
4406;DHT22;2216;53.806;11.598;2023-01-26T12:58:26;2.90;82.60
4406;DHT22;2216;53.806;11.598;2023-01-26T13:01:08;2.90;82.70
4406;DHT22;2216;53.806;11.598;2023-01-26T13:03:43;3.00;82.70
4406;DHT22;2216;53.806;11.598;2023-01-26T13:06:17;3.00;82.70
4406;DHT22;2216;53.806;11.598;2023-01-26T13:09:00;3.00;82.60
4406;DHT22;2216;53.806;11.598;2023-01-26T13:11:45;3.00;82.60
4406;DHT22;2216;53.806;11.598;2023-01-26T13:16:55;3.00;82.50
4406;DHT22;2216;53.806;11.598;2023-01-26T13:35:20;3.00;82.50
4406;DHT22;2216;53.806;11.598;2023-01-26T13:37:49;3.00;82.40
4406;DHT22;2216;53.806;11.598;2023-01-26T13:40:29;3.00;82.50
4406;DHT22;2216;53.806;11.598;2023-01-26T13:43:20;3.00;82.50
4406;DHT22;2216;53.806;11.598;2023-01-26T13:46:16;3.00;82.50
4406;DHT22;2216;53.806;11.598;2023-01-26T13:48:51;3.00;82.50
4406;DHT22;2216;53.806;11.598;2023-01-26T13:51:29;2.90;82.40
4406;DHT22;2216;53.806;11.598;2023-01-26T13:54:00;3.00;82.50
4406;DHT22;2216;53.806;11.598;2023-01-26T13:59:13;3.00;82.50
4406;DHT22;2216;53.806;11.598;2023-01-26T14:01:59;3.00;82.50
4406;DHT22;2216;53.806;11.598;2023-01-26T14:04:26;3.00;83.20
4406;DHT22;2216;53.806;11.598;2023-01-26T14:09:40;3.00;82.50
4406;DHT22;2216;53.806;11.598;2023-01-26T14:12:16;3.00;82.50
4406;DHT22;2216;53.806;11.598;2023-01-26T14:14:47;3.00;82.50
4406;DHT22;2216;53.806;11.598;2023-01-26T14:17:28;3.00;82.50
4406;DHT22;2216;53.806;11.598;2023-01-26T14:19:56;3.00;82.40
4406;DHT22;2216;53.806;11.598;2023-01-26T14:22:27;3.00;82.40
4406;DHT22;2216;53.806;11.598;2023-01-26T14:24:54;3.00;82.40
4406;DHT22;2216;53.806;11.598;2023-01-26T14:27:36;3.00;82.40
4406;DHT22;2216;53.806;11.598;2023-01-26T14:30:41;3.00;82.50
4406;DHT22;2216;53.806;11.598;2023-01-26T14:33:14;3.00;82.50
4406;DHT22;2216;53.806;11.598;2023-01-26T14:35:42;3.00;82.50
4406;DHT22;2216;53.806;11.598;2023-01-26T14:38:11;3.00;82.50
4406;DHT22;2216;53.806;11.598;2023-01-26T14:40:50;3.00;82.50
4406;DHT22;2216;53.806;11.598;2023-01-26T14:43:18;3.00;82.50
4406;DHT22;2216;53.806;11.598;2023-01-26T14:45:54;3.00;82.50
4406;DHT22;2216;53.806;11.598;2023-01-26T14:48:29;2.90;82.40
4406;DHT22;2216;53.806;11.598;2023-01-26T14:50:58;3.00;82.50
4406;DHT22;2216;53.806;11.598;2023-01-26T14:53:24;3.00;82.50
4406;DHT22;2216;53.806;11.598;2023-01-26T14:55:51;3.00;82.50
4406;DHT22;2216;53.806;11.598;2023-01-26T14:58:24;3.20;82.60
4406;DHT22;2216;53.806;11.598;2023-01-26T15:00:52;3.00;82.50
4406;DHT22;2216;53.806;11.598;2023-01-26T15:03:25;3.00;82.50
4406;DHT22;2216;53.806;11.598;2023-01-26T15:11:31;3.00;82.50
4406;DHT22;2216;53.806;11.598;2023-01-26T15:14:30;3.00;82.40
4406;DHT22;2216;53.806;11.598;2023-01-26T15:16:59;3.00;82.40
4406;DHT22;2216;53.806;11.598;2023-01-26T15:19:29;3.00;82.40
4406;DHT22;2216;53.806;11.598;2023-01-26T15:21:56;3.00;82.40
4406;DHT22;2216;53.806;11.598;2023-01-26T15:24:22;3.00;82.40
4406;DHT22;2216;53.806;11.598;2023-01-26T15:26:48;3.00;82.40
4406;DHT22;2216;53.806;11.598;2023-01-26T15:29:25;3.00;82.40
4406;DHT22;2216;53.806;11.598;2023-01-26T15:31:55;3.00;82.40
4406;DHT22;2216;53.806;11.598;2023-01-26T15:34:35;2.90;82.30
4406;DHT22;2216;53.806;11.598;2023-01-26T15:37:24;2.90;82.40
4406;DHT22;2216;53.806;11.598;2023-01-26T15:39:53;2.90;82.40
4406;DHT22;2216;53.806;11.598;2023-01-26T15:42:23;2.90;82.30
4406;DHT22;2216;53.806;11.598;2023-01-26T15:44:53;2.90;82.40
4406;DHT22;2216;53.806;11.598;2023-01-26T15:47:18;2.90;82.40
4406;DHT22;2216;53.806;11.598;2023-01-26T15:49:44;2.90;82.40
4406;DHT22;2216;53.806;11.598;2023-01-26T15:52:20;2.90;82.40
4406;DHT22;2216;53.806;11.598;2023-01-26T15:54:50;2.80;82.30
4406;DHT22;2216;53.806;11.598;2023-01-26T15:57:16;2.90;82.40
4406;DHT22;2216;53.806;11.598;2023-01-26T15:59:42;2.90;82.40
4406;DHT22;2216;53.806;11.598;2023-01-26T16:02:20;2.90;82.40
4406;DHT22;2216;53.806;11.598;2023-01-26T16:04:46;2.90;82.40
4406;DHT22;2216;53.806;11.598;2023-01-26T16:07:14;2.90;82.50
4406;DHT22;2216;53.806;11.598;2023-01-26T16:09:41;2.90;82.40
4406;DHT22;2216;53.806;11.598;2023-01-26T16:12:15;2.90;82.40
4406;DHT22;2216;53.806;11.598;2023-01-26T16:14:41;2.90;82.40
4406;DHT22;2216;53.806;11.598;2023-01-26T16:17:12;2.90;82.40
4406;DHT22;2216;53.806;11.598;2023-01-26T16:19:40;3.10;82.50
4406;DHT22;2216;53.806;11.598;2023-01-26T16:22:09;2.90;82.40
4406;DHT22;2216;53.806;11.598;2023-01-26T16:24:35;2.90;82.40
4406;DHT22;2216;53.806;11.598;2023-01-26T16:27:04;2.90;82.40
4406;DHT22;2216;53.806;11.598;2023-01-26T16:29:30;3.00;82.50
4406;DHT22;2216;53.806;11.598;2023-01-26T16:31:57;2.90;82.40
4406;DHT22;2216;53.806;11.598;2023-01-26T16:34:25;2.90;82.40
4406;DHT22;2216;53.806;11.598;2023-01-26T16:36:51;2.90;82.40
4406;DHT22;2216;53.806;11.598;2023-01-26T16:39:16;3.00;82.60
4406;DHT22;2216;53.806;11.598;2023-01-26T16:41:42;3.00;82.50
4406;DHT22;2216;53.806;11.598;2023-01-26T16:44:13;3.20;82.80
4406;DHT22;2216;53.806;11.598;2023-01-26T16:46:41;3.00;82.50
4406;DHT22;2216;53.806;11.598;2023-01-26T16:49:12;3.00;82.60
4406;DHT22;2216;53.806;11.598;2023-01-26T16:51:39;3.00;82.60
4406;DHT22;2216;53.806;11.598;2023-01-26T16:54:07;3.00;82.60
4406;DHT22;2216;53.806;11.598;2023-01-26T16:56:33;3.00;82.70
4406;DHT22;2216;53.806;11.598;2023-01-26T16:58:59;3.00;82.70
4406;DHT22;2216;53.806;11.598;2023-01-26T17:01:27;3.10;82.80
4406;DHT22;2216;53.806;11.598;2023-01-26T17:03:57;3.10;82.80
4406;DHT22;2216;53.806;11.598;2023-01-26T17:06:23;3.10;82.90
4406;DHT22;2216;53.806;11.598;2023-01-26T17:08:49;3.20;83.00
4406;DHT22;2216;53.806;11.598;2023-01-26T17:11:18;3.20;83.00
4406;DHT22;2216;53.806;11.598;2023-01-26T17:13:47;3.20;83.00
4406;DHT22;2216;53.806;11.598;2023-01-26T17:16:19;3.30;83.30
4406;DHT22;2216;53.806;11.598;2023-01-26T17:18:47;3.30;83.20
4406;DHT22;2216;53.806;11.598;2023-01-26T17:21:17;3.40;83.40
4406;DHT22;2216;53.806;11.598;2023-01-26T17:23:43;3.40;83.60
4406;DHT22;2216;53.806;11.598;2023-01-26T17:26:14;3.50;83.70
4406;DHT22;2216;53.806;11.598;2023-01-26T17:28:42;3.50;83.80
4406;DHT22;2216;53.806;11.598;2023-01-26T17:31:13;3.70;83.70
4406;DHT22;2216;53.806;11.598;2023-01-26T17:33:42;3.60;83.70
4406;DHT22;2216;53.806;11.598;2023-01-26T17:36:09;3.60;83.90
4406;DHT22;2216;53.806;11.598;2023-01-26T17:38:35;3.70;84.50
4406;DHT22;2216;53.806;11.598;2023-01-26T17:41:02;3.70;84.50
4406;DHT22;2216;53.806;11.598;2023-01-26T17:43:28;3.70;85.00
4406;DHT22;2216;53.806;11.598;2023-01-26T17:46:05;3.70;84.30
4406;DHT22;2216;53.806;11.598;2023-01-26T17:48:34;3.70;84.60
4406;DHT22;2216;53.806;11.598;2023-01-26T17:51:04;3.80;84.30